Time;durP1;ratioP1;P1;durP2;ratioP2;P2;SDS_P1;SDS_P2;PMS_P1;PMS_P2;Temp;Humidity;BMP_temperature;BMP_pressure;BME280_temperature;BME280_humidity;BME280_pressure;Samples;Min_cycle;Max_cycle;Signal;HPM_P1;HPM_P2
2021/04/02 00:00:52;;;;;;;74.00;50.52;;;;;;;11.83;84.73;100274.59;2842237;83;21130;-64
2021/04/02 00:04:55;;;;;;;87.15;56.60;;;;;;;11.82;84.79;100276.91;2842209;83;21121;-64
2021/04/02 00:08:58;;;;;;;84.75;55.00;;;;;;;11.78;85.37;100274.13;2832489;83;21133;-64
2021/04/02 00:13:04;;;;;;;80.17;50.63;;;;;;;11.77;85.61;100276.44;2791585;84;21169;-64
2021/04/02 00:17:09;;;;;;;87.45;57.50;;;;;;;11.75;86.19;100280.23;2809385;83;21548;-63
2021/04/02 00:21:16;;;;;;;93.07;60.73;;;;;;;11.75;85.52;100277.06;2821128;83;21140;-63
2021/04/02 00:25:20;;;;;;;80.28;51.68;;;;;;;11.78;84.96;100283.96;2774147;85;21132;-64
2021/04/02 00:29:26;;;;;;;83.37;51.13;;;;;;;11.72;84.44;100277.34;2807394;84;21187;-63
2021/04/02 00:33:33;;;;;;;75.97;51.80;;;;;;;11.63;84.61;100271.49;2819853;84;21567;-63
2021/04/02 00:37:40;;;;;;;82.30;50.95;;;;;;;11.49;85.07;100270.86;2819827;84;21101;-63
2021/04/02 00:41:44;;;;;;;80.22;50.08;;;;;;;11.39;85.51;100278.80;2819859;84;21161;-64
2021/04/02 00:45:51;;;;;;;74.90;49.93;;;;;;;11.26;86.08;100279.00;2819320;84;21164;-63
2021/04/02 00:49:55;;;;;;;79.20;51.48;;;;;;;11.15;86.85;100275.06;2819045;84;21165;-64
2021/04/02 00:54:20;;;;;;;70.92;46.77;;;;;;;11.09;87.26;100276.42;2837315;83;21663;-64
2021/04/02 00:58:25;;;;;;;66.80;43.83;;;;;;;11.08;87.55;100284.55;2780815;85;21148;-63
2021/04/02 01:02:30;;;;;;;;;;;;;;;11.02;88.09;100285.08;2775293;85;21177;-63
2021/04/02 01:06:34;;;;;;;70.03;44.70;;;;;;;10.92;88.27;100283.67;2772834;85;20204;-64
2021/04/02 01:15:21;;;;;;;55.30;34.50;;;;;;;10.87;88.32;100278.72;3065790;77;22792;-63
2021/04/02 01:19:45;;;;;;;44.25;28.80;;;;;;;10.79;88.48;100274.04;3019776;78;21097;-63
2021/04/02 01:24:10;;;;;;;44.77;28.10;;;;;;;10.77;88.16;100279.12;3019691;78;21161;-62
2021/04/02 01:28:31;;;;;;;36.42;25.72;;;;;;;10.75;88.37;100272.61;3018175;78;21141;-62
2021/04/02 01:32:41;;;;;;;33.33;22.65;;;;;;;10.69;88.67;100272.62;2911446;80;21703;-62
2021/04/02 01:36:46;;;;;;;24.32;18.75;;;;;;;10.65;88.87;100291.15;2908154;81;21583;-61
2021/04/02 01:40:57;;;;;;;21.15;15.50;;;;;;;10.59;88.77;100292.96;2907806;81;22177;-61
2021/04/02 01:45:05;;;;;;;22.48;15.72;;;;;;;10.47;88.47;100305.95;2907999;81;21127;-62
2021/04/02 01:49:10;;;;;;;23.42;17.15;;;;;;;10.33;88.33;100315.02;2908112;81;21139;-62
2021/04/02 01:53:14;;;;;;;20.68;16.60;;;;;;;10.16;88.46;100318.55;2908069;81;21170;-62
2021/04/02 01:57:19;;;;;;;23.00;17.30;;;;;;;10.00;88.98;100320.22;2908339;81;21162;-61
2021/04/02 02:01:38;;;;;;;24.02;18.35;;;;;;;9.84;89.34;100325.91;2908055;81;21139;-60
2021/04/02 02:05:42;;;;;;;26.27;18.05;;;;;;;9.71;89.49;100339.30;2907982;81;21158;-59
2021/04/02 02:09:49;;;;;;;20.92;14.68;;;;;;;9.60;89.53;100348.10;2908217;81;21135;-59
2021/04/02 02:13:58;;;;;;;26.52;18.17;;;;;;;9.52;89.71;100348.69;2907672;81;21128;-60
2021/04/02 02:18:04;;;;;;;19.82;14.05;;;;;;;9.50;90.08;100351.95;2908240;81;21149;-59
2021/04/02 02:22:10;;;;;;;22.20;14.80;;;;;;;9.37;89.40;100358.67;2908160;81;21109;-59
2021/04/02 02:26:14;;;;;;;22.62;15.48;;;;;;;9.23;89.62;100366.33;2907234;81;21319;-62
2021/04/02 02:30:22;;;;;;;23.98;18.55;;;;;;;9.15;90.60;100367.39;2907223;81;21165;-63
2021/04/02 02:34:24;;;;;;;20.48;16.77;;;;;;;9.03;90.50;100375.80;2907117;81;21650;-63
2021/04/02 02:38:29;;;;;;;29.77;20.40;;;;;;;8.88;90.72;100385.73;2907471;81;21567;-63
2021/04/02 02:42:55;;;;;;;22.00;18.23;;;;;;;8.76;91.10;100372.89;2907338;81;21112;-64
2021/04/02 02:47:04;;;;;;;27.52;20.10;;;;;;;8.66;91.01;100381.14;2848075;83;21614;-62
2021/04/02 02:51:08;;;;;;;21.15;16.37;;;;;;;8.54;91.01;100391.66;2848396;83;21129;-63
2021/04/02 02:55:13;;;;;;;25.35;17.75;;;;;;;8.42;91.13;100391.20;2847906;83;21154;-63
2021/04/02 02:59:23;;;;;;;21.70;16.60;;;;;;;8.40;91.59;100395.27;2848100;83;21149;-63
2021/04/02 03:03:27;;;;;;;26.07;19.07;;;;;;;8.37;91.53;100394.17;2848314;83;21137;-62
2021/04/02 03:07:32;;;;;;;24.25;17.12;;;;;;;8.33;91.41;100400.64;2848349;83;21181;-62
2021/04/02 03:11:37;;;;;;;26.50;17.27;;;;;;;8.32;91.37;100402.06;2848142;83;21169;-62
2021/04/02 03:15:41;;;;;;;19.03;14.73;;;;;;;8.35;91.63;100405.83;2848413;83;21138;-63
2021/04/02 03:19:46;;;;;;;22.60;16.27;;;;;;;8.38;91.58;100411.77;2848185;83;21174;-62
2021/04/02 03:23:52;;;;;;;18.52;15.13;;;;;;;8.41;91.57;100406.23;2848072;83;21698;-62
2021/04/02 03:27:55;;;;;;;21.27;16.20;;;;;;;8.46;91.46;100414.38;2848335;83;21173;-62
2021/04/02 03:32:04;;;;;;;14.90;12.43;;;;;;;8.43;90.58;100422.88;2812533;83;21166;-62
2021/04/02 03:36:12;;;;;;;19.65;14.68;;;;;;;8.42;90.51;100424.33;2800365;85;21151;-63
2021/04/02 03:40:20;;;;;;;17.75;12.93;;;;;;;8.40;90.39;100423.59;2800446;85;21170;-62
2021/04/02 03:44:28;;;;;;;19.55;14.15;;;;;;;8.37;90.39;100424.65;2769513;84;21130;-63
2021/04/02 03:48:41;;;;;;;16.75;13.50;;;;;;;8.35;90.22;100429.22;2800180;85;21151;-62
2021/04/02 03:52:48;;;;;;;20.55;13.72;;;;;;;8.29;89.81;100435.78;2800570;85;21171;-63
2021/04/02 03:56:54;;;;;;;17.98;14.45;;;;;;;8.24;90.07;100423.80;2798359;85;21123;-62
2021/04/02 04:01:19;;;;;;;15.58;12.13;;;;;;;8.22;90.05;100427.05;2800623;85;21162;-62
2021/04/02 04:05:25;;;;;;;20.00;13.67;;;;;;;8.15;89.83;100423.50;2800293;85;21167;-63
2021/04/02 04:09:30;;;;;;;16.87;14.53;;;;;;;8.09;89.62;100431.03;2800684;84;21749;-62
2021/04/02 04:13:36;;;;;;;19.90;14.35;;;;;;;8.07;89.94;100430.29;2800492;85;21174;-62
2021/04/02 04:17:42;;;;;;;15.00;12.88;;;;;;;8.03;90.31;100430.97;2800339;85;21625;-62
2021/04/02 04:21:46;;;;;;;18.42;14.38;;;;;;;8.04;90.38;100431.34;2800232;85;21135;-63
2021/04/02 04:25:53;;;;;;;17.27;13.28;;;;;;;8.03;90.11;100430.97;2800098;85;21187;-63
2021/04/02 04:29:57;;;;;;;20.17;15.40;;;;;;;8.03;90.55;100436.27;2800067;85;21199;-63
2021/04/02 04:34:02;;;;;;;25.35;14.58;;;;;;;8.02;90.43;100435.90;2800406;84;21273;-63
2021/04/02 04:38:06;;;;;;;16.12;12.03;;;;;;;8.02;90.27;100442.52;2800201;85;21174;-63
2021/04/02 04:42:16;;;;;;;17.45;12.40;;;;;;;7.98;89.78;100450.31;2800279;84;21147;-63
2021/04/02 04:46:19;;;;;;;14.23;11.93;;;;;;;7.93;89.83;100446.64;2772808;85;21151;-63
2021/04/02 04:50:22;;;;;;;22.98;15.13;;;;;;;7.96;90.08;100449.11;2800168;85;21663;-62
2021/04/02 04:54:29;;;;;;;15.88;12.70;;;;;;;7.95;90.10;100454.01;2804903;84;21176;-63
2021/04/02 04:58:36;;;;;;;17.10;11.10;;;;;;;7.95;89.92;100451.36;2827612;84;21180;-62
2021/04/02 05:02:43;;;;;;;11.85;9.20;;;;;;;7.92;89.16;100460.02;2827899;84;21160;-62
2021/04/02 05:06:51;;;;;;;15.10;11.03;;;;;;;7.88;89.04;100459.86;2827962;84;21603;-62
2021/04/02 05:10:56;;;;;;;15.48;11.50;;;;;;;7.88;89.27;100462.02;2827918;84;21160;-62
2021/04/02 05:15:02;;;;;;;14.65;10.72;;;;;;;7.91;89.40;100465.77;2828374;84;21204;-62
2021/04/02 05:19:06;;;;;;;16.62;12.23;;;;;;;7.91;89.28;100467.09;2828231;84;21621;-62
2021/04/02 05:23:10;;;;;;;14.65;11.43;;;;;;;7.89;88.57;100469.00;2827977;84;21184;-61
2021/04/02 05:27:13;;;;;;;15.45;11.85;;;;;;;7.90;88.57;100480.46;2828016;84;21207;-62
2021/04/02 05:31:17;;;;;;;12.78;9.18;;;;;;;7.86;88.20;100479.35;2818194;82;21140;-62
2021/04/02 05:35:22;;;;;;;12.18;9.05;;;;;;;7.87;87.97;100477.53;2793634;85;21648;-62
2021/04/02 05:39:26;;;;;;;12.03;10.03;;;;;;;7.89;88.36;100478.77;2799747;84;21191;-61
2021/04/02 05:43:46;;;;;;;13.68;8.98;;;;;;;7.92;88.38;100484.69;2790843;85;21169;-62
2021/04/02 05:48:07;;;;;;;13.68;10.45;;;;;;;7.91;87.91;100480.34;2787161;82;21496;-61
2021/04/02 05:56:43;;;;;;;13.45;10.10;;;;;;;7.91;87.70;100492.26;2896263;81;21612;-61
2021/04/02 06:00:46;;;;;;;11.93;9.43;;;;;;;7.88;87.33;100492.97;2896621;82;21161;-61
2021/04/02 06:04:50;;;;;;;11.20;9.10;;;;;;;7.84;87.46;100494.47;2896915;82;21126;-60
2021/04/02 06:08:55;;;;;;;14.25;10.13;;;;;;;7.84;86.93;100489.66;2799725;84;21632;-61
2021/04/02 06:13:01;;;;;;;11.93;9.45;;;;;;;7.80;87.19;100494.31;2842175;83;21154;-59
2021/04/02 06:17:06;;;;;;;15.30;10.05;;;;;;;7.78;87.14;100492.23;2841069;83;21162;-60
2021/04/02 06:21:12;;;;;;;11.45;9.98;;;;;;;7.81;87.41;100497.81;2808936;84;21173;-60
2021/04/02 06:25:38;;;;;;;13.25;11.40;;;;;;;7.83;87.31;100494.09;2809033;84;21643;-59
2021/04/02 06:29:44;;;;;;;14.85;11.75;;;;;;;7.82;87.37;100501.67;2774620;85;21665;-59
2021/04/02 06:33:53;;;;;;;11.88;9.28;;;;;;;7.81;86.99;100506.59;2772674;85;21205;-60
2021/04/02 06:37:56;;;;;;;12.20;9.55;;;;;;;7.74;86.46;100511.94;2772744;85;21502;-60
2021/04/02 06:42:02;;;;;;;14.73;9.75;;;;;;;7.67;86.19;100513.31;2772632;85;21193;-60
2021/04/02 06:46:08;;;;;;;10.05;8.90;;;;;;;7.66;86.80;100512.91;2772957;85;21148;-60
2021/04/02 06:50:26;;;;;;;10.70;8.28;;;;;;;7.63;85.97;100508.68;2772724;85;21571;-59
2021/04/02 06:54:31;;;;;;;10.43;8.50;;;;;;;7.60;86.06;100519.94;2772756;85;22311;-60
2021/04/02 06:58:41;;;;;;;12.43;9.08;;;;;;;7.50;84.65;100516.59;2772606;85;21196;-61
2021/04/02 07:02:46;;;;;;;11.73;7.95;;;;;;;7.44;85.25;100519.61;2794330;84;21659;-61
2021/04/02 07:06:52;;;;;;;13.13;8.53;;;;;;;7.40;84.95;100524.73;2783691;84;21166;-61
2021/04/02 07:10:58;;;;;;;8.75;7.85;;;;;;;7.41;85.41;100517.16;2769959;85;21483;-60
2021/04/02 07:15:03;;;;;;;13.13;9.53;;;;;;;7.42;85.29;100521.52;2763753;86;21189;-60
2021/04/02 07:19:07;;;;;;;11.93;8.05;;;;;;;7.45;85.63;100531.89;2749916;86;21647;-62
2021/04/02 07:23:10;;;;;;;7.50;6.72;;;;;;;7.43;85.10;100533.80;2763761;85;21169;-60
2021/04/02 07:27:15;;;;;;;12.93;8.40;;;;;;;7.48;85.26;100534.83;2750303;85;21185;-60
2021/04/02 07:31:21;;;;;;;11.50;8.30;;;;;;;7.49;85.16;100533.42;2772576;85;21657;-61
2021/04/02 07:35:26;;;;;;;9.33;7.28;;;;;;;7.52;83.86;100535.00;2763700;85;21146;-61
2021/04/02 07:39:33;;;;;;;10.75;7.78;;;;;;;7.53;82.97;100536.23;2763688;85;21193;-61
2021/04/02 07:43:55;;;;;;;10.78;8.18;;;;;;;7.57;83.53;100546.99;2763609;85;21654;-62
2021/04/02 07:48:37;;;;;;;8.20;5.87;;;;;;;7.60;82.42;100543.77;2763995;85;21169;-61
2021/04/02 07:52:43;;;;;;;9.83;6.22;;;;;;;7.61;81.92;100544.14;2776677;85;21149;-61
2021/04/02 07:56:57;;;;;;;10.03;7.12;;;;;;;7.67;81.28;100550.38;2785032;85;21554;-61
2021/04/02 08:01:03;;;;;;;11.48;8.43;;;;;;;7.69;80.92;100550.63;2782660;84;21205;-62
2021/04/02 08:05:13;;;;;;;14.15;7.92;;;;;;;7.72;80.07;100544.30;2770665;85;21168;-61
2021/04/02 08:09:16;;;;;;;8.45;7.55;;;;;;;7.81;79.33;100541.52;2765362;86;21132;-62
2021/04/02 08:13:19;;;;;;;9.40;7.40;;;;;;;7.91;79.88;100536.45;2773487;84;21133;-64
2021/04/02 08:17:44;;;;;;;8.98;7.10;;;;;;;8.00;78.48;100545.09;2767538;85;21730;-62
2021/04/02 08:21:55;;;;;;;7.90;6.33;;;;;;;8.11;78.64;100545.23;2768647;85;21209;-62
2021/04/02 08:25:58;;;;;;;9.73;7.35;;;;;;;8.28;77.93;100547.23;2769423;85;21180;-61
2021/04/02 08:30:07;;;;;;;9.43;7.78;;;;;;;8.37;77.60;100559.84;2781542;84;21134;-62
2021/04/02 08:34:18;;;;;;;7.20;6.00;;;;;;;8.43;76.49;100555.43;2816373;83;21108;-62
2021/04/02 08:38:28;;;;;;;9.88;7.55;;;;;;;8.46;75.39;100553.55;2813615;84;22303;-62
2021/04/02 08:42:32;;;;;;;10.53;7.37;;;;;;;8.50;74.83;100557.71;2812232;84;21172;-61
2021/04/02 08:46:43;;;;;;;9.15;7.08;;;;;;;8.50;74.29;100555.89;2821413;84;21457;-62
2021/04/02 08:50:49;;;;;;;9.55;6.75;;;;;;;8.54;74.13;100557.86;2729780;87;21169;-62
2021/04/02 08:55:02;;;;;;;9.25;7.53;;;;;;;8.69;74.27;100555.48;2821140;84;21144;-62
2021/04/02 08:59:13;;;;;;;9.35;6.60;;;;;;;8.87;74.23;100555.16;2812857;84;21158;-63
2021/04/02 09:03:17;;;;;;;7.78;6.50;;;;;;;9.05;73.58;100549.00;2815004;84;21655;-63
2021/04/02 09:07:20;;;;;;;8.28;6.62;;;;;;;9.19;73.64;100548.50;2814716;84;22332;-63
2021/04/02 09:11:23;;;;;;;9.45;7.22;;;;;;;9.30;72.41;100551.21;2814288;84;21521;-62
2021/04/02 09:15:33;;;;;;;11.33;8.48;;;;;;;9.41;72.58;100545.13;2814729;84;21169;-62
2021/04/02 09:19:37;;;;;;;9.40;7.00;;;;;;;9.43;72.83;100536.56;2815231;84;21176;-63
2021/04/02 09:23:40;;;;;;;9.78;6.97;;;;;;;9.51;71.21;100530.23;2717333;86;21192;-62
2021/04/02 09:27:45;;;;;;;8.83;7.45;;;;;;;9.65;70.95;100531.02;2758394;85;21144;-63
2021/04/02 09:31:53;;;;;;;11.22;8.68;;;;;;;9.79;71.38;100525.51;2719475;87;21195;-62
2021/04/02 09:35:57;;;;;;;10.00;7.55;;;;;;;9.92;71.22;100517.45;2795589;84;21159;-62
2021/04/02 09:40:08;;;;;;;9.75;7.08;;;;;;;9.94;72.01;100514.70;2799174;84;21151;-62
2021/04/02 09:44:14;;;;;;;8.55;6.67;;;;;;;9.89;71.54;100511.05;2791973;84;21538;-63
2021/04/02 09:48:21;;;;;;;14.13;9.53;;;;;;;9.86;71.04;100510.82;2736987;85;21122;-63
2021/04/02 09:52:25;;;;;;;13.22;8.28;;;;;;;9.76;71.94;100504.48;2784223;84;21223;-64
2021/04/02 09:56:28;;;;;;;14.00;9.63;;;;;;;9.92;73.40;100508.66;2756467;85;21187;-62
2021/04/02 10:00:32;;;;;;;13.95;10.50;;;;;;;9.99;71.18;100503.23;2767345;85;21204;-63
2021/04/02 10:04:37;;;;;;;11.70;8.65;;;;;;;10.04;72.92;100502.42;2767790;85;21639;-63
2021/04/02 10:08:40;;;;;;;14.60;11.28;;;;;;;10.15;71.93;100497.11;2767160;86;21169;-62
2021/04/02 10:12:43;;;;;;;20.30;11.22;;;;;;;10.17;71.05;100493.48;2768296;85;21717;-62
2021/04/02 10:16:46;;;;;;;19.15;12.10;;;;;;;10.13;72.70;100497.71;2764352;85;22281;-63
2021/04/02 10:20:50;;;;;;;16.37;12.23;;;;;;;10.23;72.46;100501.01;2721849;87;21213;-63
2021/04/02 10:24:53;;;;;;;10.55;7.65;;;;;;;10.34;70.69;100501.00;2768728;85;21200;-63
2021/04/02 10:28:56;;;;;;;14.75;9.88;;;;;;;10.29;68.37;100504.02;2767794;85;21142;-63
2021/04/02 10:33:21;;;;;;;14.78;10.95;;;;;;;10.36;69.21;100502.23;2767865;85;21542;-63
2021/04/02 10:37:24;;;;;;;14.03;10.70;;;;;;;10.32;68.38;100501.61;2825630;83;21169;-64
2021/04/02 10:41:27;;;;;;;11.48;9.75;;;;;;;10.53;70.28;100486.30;2826047;84;21186;-63
2021/04/02 10:45:32;;;;;;;24.80;17.17;;;;;;;10.66;69.33;100492.36;2825377;84;21167;-64
2021/04/02 10:49:35;;;;;;;18.32;13.60;;;;;;;10.69;67.64;100491.25;2827129;82;21562;-65
2021/04/02 10:53:38;;;;;;;20.40;16.60;;;;;;;10.42;66.01;100495.13;2826029;83;21429;-64
2021/04/02 10:57:42;;;;;;;11.95;10.15;;;;;;;10.19;68.29;100479.12;2821927;84;21180;-63
2021/04/02 11:01:45;;;;;;;15.53;9.38;;;;;;;10.41;68.58;100470.83;2781075;84;21751;-63
2021/04/02 11:05:50;;;;;;;13.53;10.68;;;;;;;10.66;68.30;100457.78;2826524;84;21561;-64
2021/04/02 11:09:54;;;;;;;16.37;12.25;;;;;;;10.78;68.78;100457.75;2825627;84;21191;-63
2021/04/02 11:13:57;;;;;;;13.15;10.30;;;;;;;10.82;66.26;100453.39;2825470;84;21166;-63
2021/04/02 11:18:00;;;;;;;11.83;8.73;;;;;;;10.95;65.90;100449.75;2824143;82;21644;-62
2021/04/02 11:22:04;;;;;;;9.58;8.28;;;;;;;10.99;65.76;100444.03;2825704;84;21133;-62
2021/04/02 11:26:08;;;;;;;10.35;8.08;;;;;;;11.06;64.93;100432.91;2825328;84;21580;-64
2021/04/02 11:30:16;;;;;;;9.75;8.58;;;;;;;11.24;66.55;100431.40;2809432;84;21148;-63
2021/04/02 11:34:19;;;;;;;10.95;8.35;;;;;;;11.38;64.98;100428.05;2816709;84;21137;-62
2021/04/02 11:38:22;;;;;;;9.60;7.65;;;;;;;11.47;66.99;100418.45;2818235;84;21175;-63
2021/04/02 11:42:25;;;;;;;10.53;7.90;;;;;;;11.63;66.79;100420.70;2818355;83;21159;-63
2021/04/02 11:46:29;;;;;;;11.93;8.00;;;;;;;11.78;66.61;100412.70;2818715;84;21155;-62
2021/04/02 11:50:33;;;;;;;10.58;7.37;;;;;;;11.94;62.47;100403.41;2811623;84;21189;-68
2021/04/02 11:54:36;;;;;;;10.18;8.13;;;;;;;11.86;64.21;100402.73;2811045;84;21119;-64
2021/04/02 11:58:39;;;;;;;9.93;8.33;;;;;;;11.82;63.95;100395.51;2810359;84;21171;-63
2021/04/02 12:02:41;;;;;;;8.90;7.85;;;;;;;11.68;62.64;100386.50;2810848;84;21146;-62
2021/04/02 12:06:45;;;;;;;9.68;6.97;;;;;;;11.67;63.50;100383.48;2810131;84;21115;-63
2021/04/02 12:10:48;;;;;;;8.45;7.65;;;;;;;11.79;63.20;100378.45;2809904;84;21560;-62
2021/04/02 12:14:51;;;;;;;13.00;9.93;;;;;;;11.96;63.04;100380.98;2811456;84;21131;-63
2021/04/02 12:18:54;;;;;;;12.28;10.10;;;;;;;12.17;63.75;100370.80;2801488;83;21636;-63
2021/04/02 12:22:59;;;;;;;12.23;10.70;;;;;;;12.27;61.92;100368.16;2810287;84;21978;-64
2021/04/02 12:27:03;;;;;;;12.50;10.53;;;;;;;12.36;63.57;100372.67;2809918;84;21580;-63
2021/04/02 12:31:07;;;;;;;16.13;11.40;;;;;;;12.52;62.55;100364.66;2773906;84;21116;-63
2021/04/02 12:35:13;;;;;;;30.27;13.10;;;;;;;12.69;63.85;100359.98;2764971;85;21191;-64
2021/04/02 12:39:16;;;;;;;13.58;9.40;;;;;;;12.64;62.34;100355.56;2790029;84;21189;-64
2021/04/02 12:43:19;;;;;;;13.03;9.95;;;;;;;12.61;61.55;100345.64;2824088;84;21589;-63
2021/04/02 12:47:22;;;;;;;11.53;9.15;;;;;;;12.71;61.51;100342.01;2822109;82;21573;-62
2021/04/02 12:51:25;;;;;;;10.08;7.60;;;;;;;12.73;60.55;100335.69;2823374;84;21158;-64
2021/04/02 12:55:31;;;;;;;9.28;7.83;;;;;;;12.71;59.26;100331.84;2823515;84;21627;-62
2021/04/02 12:59:34;;;;;;;12.55;10.18;;;;;;;12.71;59.16;100328.66;2823728;84;21178;-63
2021/04/02 13:03:38;;;;;;;12.50;10.05;;;;;;;12.73;61.20;100323.67;2824324;84;21133;-64
2021/04/02 13:07:42;;;;;;;11.33;8.68;;;;;;;12.77;59.94;100319.73;2822800;84;21392;-62
2021/04/02 13:11:47;;;;;;;10.50;8.05;;;;;;;12.68;60.15;100311.59;2822422;84;21598;-63
2021/04/02 13:15:50;;;;;;;9.63;8.50;;;;;;;12.65;59.73;100307.02;2822023;84;21609;-62
2021/04/02 13:19:52;;;;;;;10.48;7.70;;;;;;;12.70;60.35;100307.47;2822728;82;21155;-63
2021/04/02 13:23:56;;;;;;;9.60;7.92;;;;;;;12.81;58.81;100303.82;2822067;84;21150;-62
2021/04/02 13:28:02;;;;;;;11.33;9.00;;;;;;;12.92;59.46;100298.83;2817760;84;22075;-64
2021/04/02 13:32:07;;;;;;;8.70;7.70;;;;;;;13.02;59.25;100290.31;2824338;84;21180;-65
2021/04/02 13:36:17;;;;;;;14.45;8.98;;;;;;;13.02;59.76;100276.13;2821118;84;21152;-60
2021/04/02 13:40:17;;;;;;;10.70;8.23;;;;;;;13.08;59.73;100275.55;2811589;84;21551;-61
2021/04/02 13:44:20;;;;;;;8.93;7.60;;;;;;;13.22;60.25;100276.94;2816492;84;21130;-61
2021/04/02 13:48:23;;;;;;;9.50;8.55;;;;;;;13.19;58.55;100274.08;2809674;83;21134;-60
2021/04/02 13:52:28;;;;;;;10.50;8.08;;;;;;;13.32;59.14;100267.56;2810798;84;21212;-61
2021/04/02 13:56:31;;;;;;;10.70;7.67;;;;;;;13.40;58.94;100267.19;2806349;84;21167;-62
2021/04/02 14:00:34;;;;;;;11.45;7.92;;;;;;;13.43;58.18;100257.58;2816045;84;21143;-61
2021/04/02 14:04:37;;;;;;;12.07;8.25;;;;;;;13.46;58.83;100255.59;2813167;84;21585;-63
2021/04/02 14:08:40;;;;;;;10.93;8.25;;;;;;;13.55;57.47;100244.88;2814608;84;21712;-63
2021/04/02 14:12:43;;;;;;;9.93;8.05;;;;;;;13.53;58.55;100242.84;2814294;84;21186;-62
2021/04/02 14:16:47;;;;;;;8.58;6.70;;;;;;;13.62;57.87;100236.30;2775274;84;21142;-63
2021/04/02 14:20:50;;;;;;;11.95;7.15;;;;;;;13.73;57.47;100236.59;2870025;83;21137;-64
2021/04/02 14:24:55;;;;;;;9.33;6.72;;;;;;;13.72;58.25;100219.70;2865942;82;21153;-64
2021/04/02 14:28:58;;;;;;;9.68;8.18;;;;;;;13.71;57.72;100211.34;2867475;83;21140;-66
2021/04/02 14:33:03;;;;;;;8.50;7.67;;;;;;;13.88;58.90;100211.55;2867456;83;21164;-62
2021/04/02 14:37:06;;;;;;;9.93;6.50;;;;;;;14.00;59.17;100203.67;2856824;82;21138;-65
2021/04/02 14:41:09;;;;;;;9.80;7.25;;;;;;;14.22;59.56;100212.25;2853151;83;21552;-64
2021/04/02 14:45:14;;;;;;;10.88;7.87;;;;;;;14.34;59.97;100201.66;2853910;82;22120;-63
2021/04/02 14:49:19;;;;;;;7.97;7.12;;;;;;;14.52;58.78;100197.66;2859440;82;21117;-63
2021/04/02 14:53:22;;;;;;;10.78;8.45;;;;;;;14.52;56.95;100192.30;2811454;83;21220;-63
2021/04/02 14:57:25;;;;;;;18.67;10.30;;;;;;;14.41;58.11;100189.36;2806525;83;21161;-61
2021/04/02 15:01:28;;;;;;;11.25;8.28;;;;;;;14.42;57.62;100188.85;2799453;83;21136;-62
2021/04/02 15:05:31;;;;;;;12.05;8.98;;;;;;;14.30;55.76;100177.54;2831558;83;21110;-61
2021/04/02 15:09:34;;;;;;;12.60;7.37;;;;;;;14.22;56.96;100174.80;2836485;82;21200;-61
2021/04/02 15:13:39;;;;;;;15.08;8.08;;;;;;;14.25;57.83;100165.98;2777089;84;21203;-61
2021/04/02 15:17:45;;;;;;;13.10;9.53;;;;;;;14.22;56.23;100173.47;2825136;83;21141;-61
2021/04/02 15:21:49;;;;;;;13.68;11.00;;;;;;;14.21;56.98;100172.61;2824963;83;21169;-61
2021/04/02 15:25:52;;;;;;;18.02;13.25;;;;;;;14.02;58.78;100165.58;2841225;83;21602;-62
2021/04/02 15:29:57;;;;;;;18.23;10.72;;;;;;;13.96;59.97;100152.83;2825552;84;21183;-61
2021/04/02 15:34:07;;;;;;;12.37;10.45;;;;;;;13.91;58.67;100148.41;2815991;82;21743;-65
2021/04/02 15:38:15;;;;;;;16.15;11.93;;;;;;;13.92;59.90;100159.44;2820976;84;21098;-64
2021/04/02 15:42:19;;;;;;;14.93;10.63;;;;;;;13.80;59.89;100147.64;2866497;83;21126;-60
2021/04/02 15:46:31;;;;;;;16.93;11.60;;;;;;;13.64;60.71;100136.25;2866213;83;21478;-64
2021/04/02 15:50:36;;;;;;;40.25;15.30;;;;;;;13.48;61.22;100126.22;2865869;82;21162;-63
2021/04/02 15:54:44;;;;;;;12.40;9.63;;;;;;;13.35;61.16;100124.34;2873267;82;21180;-63
2021/04/02 15:58:49;;;;;;;16.97;10.38;;;;;;;13.29;61.62;100121.28;2878444;82;21611;-63
2021/04/02 16:02:59;;;;;;;12.50;8.83;;;;;;;13.28;61.11;100108.92;2846312;82;21564;-62
2021/04/02 16:07:04;;;;;;;11.63;9.53;;;;;;;13.22;60.80;100112.19;2864601;82;21174;-65
2021/04/02 16:11:09;;;;;;;13.22;9.48;;;;;;;13.09;61.35;100113.01;2864063;82;21549;-63
2021/04/02 16:15:15;;;;;;;11.80;8.53;;;;;;;12.97;61.74;100112.35;2862149;81;21158;-65
2021/04/02 16:19:18;;;;;;;10.85;8.43;;;;;;;12.82;62.40;100099.97;2856799;81;21199;-62
2021/04/02 16:23:21;;;;;;;13.00;8.93;;;;;;;12.68;62.19;100098.61;2853519;83;21145;-62
2021/04/02 16:27:25;;;;;;;11.63;7.80;;;;;;;12.50;62.47;100090.48;2864044;83;21179;-63
2021/04/02 16:31:28;;;;;;;11.00;9.25;;;;;;;12.38;63.00;100077.80;2865398;83;21174;-64
2021/04/02 16:35:33;;;;;;;9.85;8.15;;;;;;;12.25;62.98;100068.77;2864984;83;21158;-64
2021/04/02 16:39:36;;;;;;;8.93;7.37;;;;;;;12.07;63.77;100061.48;2867907;82;21160;-62
2021/04/02 16:43:41;;;;;;;17.73;8.38;;;;;;;11.94;64.28;100055.55;2870619;82;21192;-62
2021/04/02 16:47:44;;;;;;;12.73;9.45;;;;;;;11.79;64.96;100056.47;2869612;82;21157;-63
2021/04/02 16:51:48;;;;;;;8.38;7.22;;;;;;;11.68;65.69;100051.61;2869703;82;21180;-64
2021/04/02 16:55:51;;;;;;;8.55;7.22;;;;;;;11.56;65.51;100050.07;2839297;81;21211;-64
2021/04/02 16:59:53;;;;;;;14.25;9.08;;;;;;;11.38;66.01;100052.55;2847170;82;21603;-64
2021/04/02 17:03:59;;;;;;;16.07;10.45;;;;;;;11.20;66.79;100045.72;2865422;83;21184;-68
2021/04/02 17:08:02;;;;;;;14.47;10.35;;;;;;;11.08;67.19;100043.14;2867673;83;22089;-64
2021/04/02 17:12:06;;;;;;;12.03;8.65;;;;;;;10.91;67.39;100045.97;2867261;83;21156;-63
2021/04/02 17:16:13;;;;;;;14.18;7.92;;;;;;;10.76;68.06;100037.98;2866831;83;22264;-64
2021/04/02 17:20:16;;;;;;;;;;;;;;;10.62;68.47;100045.83;2870418;83;21105;-63
2021/04/02 17:24:20;;;;;;;11.60;7.97;;;;;;;10.49;68.61;100054.84;2871365;81;20183;-63
2021/04/02 17:28:24;;;;;;;12.55;10.48;;;;;;;10.37;68.97;100056.70;2870168;82;21168;-64
2021/04/02 17:32:31;;;;;;;12.10;9.68;;;;;;;10.26;69.27;100052.30;2915793;81;21614;-64
2021/04/02 17:36:34;;;;;;;13.65;9.95;;;;;;;10.21;69.50;100065.62;2854914;82;21129;-64
2021/04/02 17:40:39;;;;;;;12.40;10.15;;;;;;;10.18;69.69;100064.55;2912720;81;21164;-64
2021/04/02 17:44:46;;;;;;;12.40;10.60;;;;;;;10.08;69.87;100066.66;2912386;81;21162;-63
2021/04/02 17:48:51;;;;;;;16.55;10.25;;;;;;;10.02;70.12;100072.97;2912647;81;21188;-65
2021/04/02 17:52:54;;;;;;;15.50;11.53;;;;;;;9.89;70.61;100082.45;2912733;81;21176;-64
2021/04/02 17:56:58;;;;;;;14.50;10.32;;;;;;;9.78;70.93;100082.00;2804033;84;21620;-64
2021/04/02 18:01:03;;;;;;;14.95;11.28;;;;;;;9.57;71.27;100090.25;2821894;84;21158;-65
2021/04/02 18:05:09;;;;;;;18.25;11.38;;;;;;;9.42;71.83;100089.69;2821231;84;21182;-65
2021/04/02 18:09:14;;;;;;;17.07;11.68;;;;;;;9.33;72.36;100096.22;2820015;84;21517;-65
2021/04/02 18:13:17;;;;;;;23.22;13.15;;;;;;;9.26;73.18;100094.06;2819983;84;21108;-64
2021/04/02 18:17:20;;;;;;;19.32;14.93;;;;;;;9.29;73.59;100098.27;2822081;84;21178;-64
2021/04/02 18:21:24;;;;;;;20.10;12.50;;;;;;;9.36;73.73;100104.79;2821503;84;21189;-63
2021/04/02 18:25:27;;;;;;;16.77;12.47;;;;;;;9.39;73.59;100103.68;2814637;83;21636;-64
2021/04/02 18:29:31;;;;;;;15.43;11.03;;;;;;;9.42;73.18;100110.06;2791626;84;21553;-62
2021/04/02 18:33:34;;;;;;;12.43;8.93;;;;;;;9.40;72.83;100108.02;2821267;84;22426;-63
2021/04/02 18:37:38;;;;;;;15.13;11.38;;;;;;;9.33;72.88;100113.47;2819408;84;21508;-64
2021/04/02 18:41:41;;;;;;;16.20;11.80;;;;;;;9.23;72.95;100107.55;2829047;84;21146;-64
2021/04/02 18:45:45;;;;;;;15.10;12.18;;;;;;;9.15;73.03;100109.98;2829727;83;21169;-64
2021/04/02 18:49:48;;;;;;;18.48;12.73;;;;;;;9.07;73.37;100110.58;2830138;84;21190;-64
2021/04/02 18:53:52;;;;;;;16.90;10.80;;;;;;;8.99;73.52;100115.16;2831602;84;21570;-64
2021/04/02 18:57:56;;;;;;;15.58;11.10;;;;;;;8.91;73.95;100116.25;2829054;84;22223;-64
2021/04/02 19:02:01;;;;;;;13.98;10.85;;;;;;;8.86;74.39;100114.44;2829101;84;21423;-63